CXM1101 WMKK-WMKN
Flight info
| Callsign | CXM1101 |
|---|---|
| Flight time | 0h 37m |
| Altitude | 27000 |
| Route | PIBOS1D PIBOS R208 GUNBO GUNBO1E |
| Aircraft | MD11/H-SDE1E2E3FGHIJ2J3J4J5M1RWXY/LB1D1 |
Departure
| Time | 2026-05-04 09:08 |
|---|---|
| Airport | Kuala Lumpur International Airport (WMKK) |
Arrival
| Time | 2026-05-04 09:46 |
|---|---|
| Airport | Sultan Mahmud Airport (WMKN) |
| Time | Latitude | Longitude | Altitude | Speed | Heading |
|---|---|---|---|---|---|
| 2026-05-04 08:33 | 2.74714 | 101.71680 | 47 ft | 0 kts | 146° |
| 2026-05-04 09:02 | 2.74715 | 101.71680 | 83 ft | 0 kts | 146° |
| 2026-05-04 09:03 | 2.74730 | 101.71669 | 83 ft | 5 kts | 146° |
| 2026-05-04 09:03 | 2.74773 | 101.71641 | 83 ft | 10 kts | 146° |
| 2026-05-04 09:03 | 2.74838 | 101.71597 | 87 ft | 13 kts | 146° |
| 2026-05-04 09:03 | 2.74878 | 101.71573 | 82 ft | 2 kts | 133° |
| 2026-05-04 09:04 | 2.74846 | 101.71606 | 85 ft | 10 kts | 137° |
| 2026-05-04 09:04 | 2.74821 | 101.71620 | 82 ft | 0 kts | 169° |
| 2026-05-04 09:04 | 2.74820 | 101.71620 | 82 ft | 0 kts | 169° |
| 2026-05-04 09:05 | 2.74816 | 101.71626 | 83 ft | 1 kts | 133° |
| 2026-05-04 09:05 | 2.74818 | 101.71635 | 83 ft | 1 kts | 80° |
| 2026-05-04 09:05 | 2.74833 | 101.71661 | 87 ft | 9 kts | 62° |
| 2026-05-04 09:05 | 2.74880 | 101.71749 | 86 ft | 19 kts | 62° |
| 2026-05-04 09:06 | 2.74935 | 101.71878 | 88 ft | 17 kts | 92° |
| 2026-05-04 09:07 | 2.75325 | 101.71875 | 81 ft | 119 kts | 327° |
| 2026-05-04 09:08 | 2.76276 | 101.71243 | 117 ft | 190 kts | 327° |
| 2026-05-04 09:08 | 2.77475 | 101.70435 | 439 ft | 222 kts | 326° |
| 2026-05-04 09:08 | 2.78725 | 101.69562 | 955 ft | 199 kts | 325° |
| 2026-05-04 09:08 | 2.79723 | 101.68829 | 968 ft | 163 kts | 324° |
| 2026-05-04 09:09 | 2.80543 | 101.68214 | 793 ft | 139 kts | 323° |
| 2026-05-04 09:09 | 2.81386 | 101.67624 | 1005 ft | 152 kts | 326° |
| 2026-05-04 09:09 | 2.82230 | 101.67030 | 2058 ft | 159 kts | 326° |
| 2026-05-04 09:09 | 2.83174 | 101.66410 | 2924 ft | 165 kts | 326° |
| 2026-05-04 09:10 | 2.84134 | 101.65766 | 3849 ft | 170 kts | 326° |
| 2026-05-04 09:10 | 2.85104 | 101.65125 | 4676 ft | 172 kts | 326° |
| 2026-05-04 09:10 | 2.86129 | 101.64431 | 5563 ft | 175 kts | 326° |
| 2026-05-04 09:10 | 2.87145 | 101.63744 | 6384 ft | 178 kts | 330° |
| 2026-05-04 09:11 | 2.87918 | 101.63471 | 6854 ft | 178 kts | 355° |
| 2026-05-04 09:11 | 2.89440 | 101.64007 | 7805 ft | 181 kts | 47° |
| 2026-05-04 09:11 | 2.89917 | 101.64686 | 8260 ft | 182 kts | 60° |
| 2026-05-04 09:11 | 2.90570 | 101.65820 | 8646 ft | 195 kts | 58° |
| 2026-05-04 09:12 | 2.91286 | 101.66898 | 8627 ft | 188 kts | 53° |
| 2026-05-04 09:12 | 2.92112 | 101.67977 | 8708 ft | 209 kts | 50° |
| 2026-05-04 09:14 | 3.00605 | 101.76320 | 8682 ft | 264 kts | 41° |
| 2026-05-04 09:14 | 3.01994 | 101.77532 | 8674 ft | 264 kts | 40° |
| 2026-05-04 09:14 | 3.03346 | 101.78701 | 8674 ft | 265 kts | 40° |
| 2026-05-04 09:14 | 3.04784 | 101.79936 | 8802 ft | 264 kts | 40° |
| 2026-05-04 09:15 | 3.06186 | 101.81134 | 9095 ft | 266 kts | 40° |
| 2026-05-04 09:15 | 3.07597 | 101.82339 | 9404 ft | 268 kts | 40° |
| 2026-05-04 09:15 | 3.09018 | 101.83548 | 9707 ft | 268 kts | 40° |
| 2026-05-04 09:15 | 3.10436 | 101.84753 | 10007 ft | 269 kts | 40° |
| 2026-05-04 09:17 | 3.23978 | 101.96238 | 12469 ft | 395 kts | 40° |
| 2026-05-04 09:18 | 3.26022 | 101.97972 | 12761 ft | 395 kts | 40° |
| 2026-05-04 09:18 | 3.28162 | 101.99788 | 13069 ft | 396 kts | 40° |
| 2026-05-04 09:18 | 3.30265 | 102.01572 | 13368 ft | 396 kts | 40° |
| 2026-05-04 09:18 | 3.32364 | 102.03351 | 13700 ft | 395 kts | 40° |
| 2026-05-04 09:19 | 3.34552 | 102.05030 | 14126 ft | 398 kts | 35° |
| 2026-05-04 09:19 | 3.36888 | 102.06519 | 14557 ft | 399 kts | 31° |
| 2026-05-04 09:19 | 3.39293 | 102.07842 | 14983 ft | 403 kts | 28° |
| 2026-05-04 09:19 | 3.41798 | 102.09119 | 15411 ft | 404 kts | 27° |
| 2026-05-04 09:20 | 3.44242 | 102.10344 | 15819 ft | 406 kts | 27° |
| 2026-05-04 09:20 | 3.46817 | 102.11639 | 16259 ft | 408 kts | 28° |
| 2026-05-04 09:20 | 3.49355 | 102.12924 | 16682 ft | 410 kts | 28° |
| 2026-05-04 09:20 | 3.51896 | 102.14220 | 17110 ft | 411 kts | 28° |
| 2026-05-04 09:21 | 3.54381 | 102.15495 | 17528 ft | 413 kts | 28° |
| 2026-05-04 09:21 | 3.57008 | 102.16847 | 17961 ft | 415 kts | 28° |
| 2026-05-04 09:21 | 3.59584 | 102.18175 | 18387 ft | 417 kts | 28° |
| 2026-05-04 09:21 | 3.62167 | 102.19507 | 18809 ft | 419 kts | 28° |
| 2026-05-04 09:22 | 3.64679 | 102.20801 | 19221 ft | 421 kts | 28° |
| 2026-05-04 09:22 | 3.67379 | 102.22192 | 19663 ft | 423 kts | 28° |
| 2026-05-04 09:22 | 3.70002 | 102.23545 | 20085 ft | 426 kts | 28° |
| 2026-05-04 09:22 | 3.72645 | 102.24908 | 20515 ft | 428 kts | 28° |
| 2026-05-04 09:23 | 3.75238 | 102.26246 | 20936 ft | 430 kts | 28° |
| 2026-05-04 09:23 | 3.77968 | 102.27654 | 21370 ft | 434 kts | 28° |
| 2026-05-04 09:23 | 3.80630 | 102.29027 | 21790 ft | 437 kts | 28° |
| 2026-05-04 09:23 | 3.83348 | 102.30429 | 22205 ft | 441 kts | 28° |
| 2026-05-04 09:25 | 4.02933 | 102.40530 | 25202 ft | 464 kts | 28° |
| 2026-05-04 09:25 | 4.05813 | 102.42015 | 25595 ft | 467 kts | 28° |
| 2026-05-04 09:26 | 4.08611 | 102.43458 | 25954 ft | 469 kts | 28° |
| 2026-05-04 09:26 | 4.11579 | 102.44990 | 26347 ft | 471 kts | 28° |
| 2026-05-04 09:26 | 4.14497 | 102.46498 | 26716 ft | 473 kts | 28° |
| 2026-05-04 09:26 | 4.17422 | 102.48010 | 27090 ft | 473 kts | 28° |
| 2026-05-04 09:27 | 4.20352 | 102.49522 | 27451 ft | 473 kts | 28° |
| 2026-05-04 09:27 | 4.23288 | 102.51039 | 27144 ft | 479 kts | 28° |
| 2026-05-04 09:27 | 4.26215 | 102.52550 | 26319 ft | 467 kts | 28° |
| 2026-05-04 09:27 | 4.29056 | 102.54015 | 25519 ft | 469 kts | 28° |
| 2026-05-04 09:28 | 4.32009 | 102.55540 | 24676 ft | 465 kts | 28° |
| 2026-05-04 09:28 | 4.34877 | 102.57019 | 23849 ft | 461 kts | 28° |
| 2026-05-04 09:28 | 4.37707 | 102.58479 | 23028 ft | 455 kts | 28° |
| 2026-05-04 09:28 | 4.40504 | 102.59925 | 22199 ft | 449 kts | 28° |
| 2026-05-04 09:29 | 4.43269 | 102.61353 | 21375 ft | 448 kts | 28° |
| 2026-05-04 09:29 | 4.46021 | 102.62778 | 20553 ft | 441 kts | 28° |
| 2026-05-04 09:29 | 4.48612 | 102.64117 | 19749 ft | 433 kts | 28° |
| 2026-05-04 09:29 | 4.51330 | 102.65520 | 18913 ft | 425 kts | 28° |
| 2026-05-04 09:30 | 4.53854 | 102.66825 | 18117 ft | 419 kts | 28° |
| 2026-05-04 09:30 | 4.56504 | 102.68192 | 17262 ft | 412 kts | 28° |
| 2026-05-04 09:30 | 4.59006 | 102.69483 | 16435 ft | 406 kts | 28° |
| 2026-05-04 09:30 | 4.61524 | 102.70763 | 15438 ft | 403 kts | 28° |
| 2026-05-04 09:31 | 4.63947 | 102.71977 | 14640 ft | 387 kts | 27° |
| 2026-05-04 09:31 | 4.66394 | 102.73193 | 12946 ft | 380 kts | 27° |
| 2026-05-04 09:31 | 4.68737 | 102.74357 | 11442 ft | 370 kts | 27° |
| 2026-05-04 09:31 | 4.70952 | 102.75458 | 9987 ft | 363 kts | 27° |
| 2026-05-04 09:32 | 4.73227 | 102.76590 | 9285 ft | 338 kts | 26° |
| 2026-05-04 09:32 | 4.75270 | 102.77601 | 9185 ft | 315 kts | 26° |
| 2026-05-04 09:34 | 4.87885 | 102.83496 | 9094 ft | 282 kts | 16° |
| 2026-05-04 09:34 | 4.89849 | 102.84014 | 8509 ft | 283 kts | 14° |
| 2026-05-04 09:34 | 4.91741 | 102.84500 | 8008 ft | 279 kts | 14° |
| 2026-05-04 09:34 | 4.93621 | 102.84980 | 7494 ft | 278 kts | 14° |
| 2026-05-04 09:35 | 4.95492 | 102.85459 | 7059 ft | 275 kts | 14° |
| 2026-05-04 09:35 | 4.97308 | 102.85923 | 6689 ft | 270 kts | 14° |
| 2026-05-04 09:35 | 4.99121 | 102.86387 | 6292 ft | 267 kts | 14° |
| 2026-05-04 09:35 | 5.00908 | 102.86846 | 5927 ft | 263 kts | 14° |
| 2026-05-04 09:37 | 5.13353 | 102.89648 | 4954 ft | 215 kts | 12° |
| 2026-05-04 09:37 | 5.14734 | 102.89917 | 4720 ft | 190 kts | 12° |
| 2026-05-04 09:38 | 5.15955 | 102.90157 | 4418 ft | 171 kts | 12° |
| 2026-05-04 09:38 | 5.17115 | 102.90375 | 4253 ft | 169 kts | 11° |
| 2026-05-04 09:38 | 5.18197 | 102.90823 | 4270 ft | 170 kts | 40° |
| 2026-05-04 09:38 | 5.19038 | 102.91589 | 3973 ft | 159 kts | 43° |
| 2026-05-04 09:39 | 5.19839 | 102.92346 | 3586 ft | 157 kts | 44° |
| 2026-05-04 09:39 | 5.20620 | 102.93095 | 3201 ft | 159 kts | 45° |
| 2026-05-04 09:39 | 5.21405 | 102.93840 | 2859 ft | 159 kts | 43° |
| 2026-05-04 09:39 | 5.22207 | 102.94623 | 2889 ft | 163 kts | 46° |
| 2026-05-04 09:40 | 5.23003 | 102.95410 | 2852 ft | 164 kts | 43° |
| 2026-05-04 09:40 | 5.23842 | 102.96217 | 2890 ft | 165 kts | 45° |
| 2026-05-04 09:40 | 5.24667 | 102.97020 | 2869 ft | 164 kts | 44° |
| 2026-05-04 09:40 | 5.25491 | 102.97821 | 2696 ft | 163 kts | 43° |
| 2026-05-04 09:41 | 5.26297 | 102.98614 | 2670 ft | 161 kts | 43° |
| 2026-05-04 09:42 | 5.31844 | 103.04018 | 434 ft | 154 kts | 44° |
| 2026-05-04 09:43 | 5.32605 | 103.04786 | 824 ft | 161 kts | 44° |
| 2026-05-04 09:43 | 5.33429 | 103.05583 | 764 ft | 162 kts | 43° |
| 2026-05-04 09:43 | 5.34226 | 103.06383 | 428 ft | 161 kts | 44° |
| 2026-05-04 09:43 | 5.34999 | 103.07180 | 312 ft | 161 kts | 43° |
| 2026-05-04 09:44 | 5.35817 | 103.07946 | 298 ft | 162 kts | 41° |
| 2026-05-04 09:44 | 5.36623 | 103.08724 | 143 ft | 160 kts | 44° |
| 2026-05-04 09:44 | 5.37402 | 103.09486 | 36 ft | 134 kts | 45° |
| 2026-05-04 09:46 | 5.38024 | 103.10264 | 33 ft | 0 kts | 131° |